createdAt,value
2023-04-21T00:00:42.971Z,11.73
2023-04-21T00:03:09.976Z,11.10
2023-04-21T00:05:38.568Z,11.48
2023-04-21T00:08:06.375Z,10.75
2023-04-21T00:10:33.039Z,12.07
2023-04-21T00:12:59.705Z,12.35
2023-04-21T00:15:26.486Z,11.82
2023-04-21T00:17:53.413Z,13.20
2023-04-21T00:20:20.233Z,13.63
2023-04-21T00:22:46.959Z,13.60
2023-04-21T00:25:14.957Z,13.18
2023-04-21T00:27:41.693Z,12.20
2023-04-21T00:30:08.987Z,13.90
2023-04-21T00:32:37.026Z,13.88
2023-04-21T00:35:04.302Z,12.73
2023-04-21T00:37:33.953Z,13.15
2023-04-21T00:40:00.705Z,13.43
2023-04-21T00:42:27.746Z,13.85
2023-04-21T00:44:54.632Z,14.88
2023-04-21T00:47:21.420Z,13.15
2023-04-21T00:49:50.289Z,15.20
2023-04-21T00:52:18.529Z,14.45
2023-04-21T00:54:45.954Z,15.30
2023-04-21T00:57:12.985Z,15.48
2023-04-21T00:59:39.731Z,15.73
2023-04-21T01:02:06.838Z,15.50
2023-04-21T01:04:38.987Z,15.25
2023-04-21T01:07:13.270Z,16.73
2023-04-21T01:09:40.359Z,15.98
2023-04-21T01:12:10.011Z,15.25
2023-04-21T01:14:38.217Z,15.68
2023-04-21T01:17:06.110Z,18.05
2023-04-21T01:19:35.863Z,16.45
2023-04-21T01:22:11.193Z,18.58
2023-04-21T01:24:42.699Z,17.90
2023-04-21T01:27:18.712Z,17.90
2023-04-21T01:29:56.614Z,18.60
2023-04-21T01:32:29.211Z,18.15
2023-04-21T01:34:57.760Z,19.88
2023-04-21T01:37:32.373Z,19.40
2023-04-21T01:40:01.091Z,19.10
2023-04-21T01:42:29.377Z,17.67
2023-04-21T01:44:58.486Z,19.63
2023-04-21T01:47:26.511Z,20.73
2023-04-21T01:49:56.357Z,17.92
2023-04-21T01:52:23.705Z,18.25
2023-04-21T01:54:53.291Z,20.25
2023-04-21T01:57:20.437Z,20.20
2023-04-21T01:59:48.328Z,21.25
2023-04-21T02:02:15.265Z,18.83
2023-04-21T02:04:42.132Z,19.45
2023-04-21T02:07:09.026Z,19.60
2023-04-21T02:09:35.844Z,22.23
2023-04-21T02:12:03.671Z,19.25
2023-04-21T02:14:30.460Z,19.83
2023-04-21T02:16:57.432Z,20.77
2023-04-21T02:19:24.543Z,19.60
2023-04-21T02:21:51.356Z,22.38
2023-04-21T02:24:18.055Z,19.95
2023-04-21T02:26:46.121Z,20.10
2023-04-21T02:29:14.769Z,20.33
2023-04-21T02:31:57.252Z,22.38
2023-04-21T02:34:26.269Z,19.90
2023-04-21T02:36:52.977Z,19.45
2023-04-21T02:39:20.133Z,22.02
2023-04-21T02:41:47.022Z,20.40
2023-04-21T02:44:13.762Z,19.50
2023-04-21T02:46:43.678Z,20.92
2023-04-21T02:49:10.992Z,20.58
2023-04-21T02:51:38.003Z,22.30
2023-04-21T02:54:04.856Z,22.38
2023-04-21T02:56:32.179Z,22.75
2023-04-21T02:58:58.936Z,23.52
2023-04-21T03:01:25.722Z,23.70
2023-04-21T03:03:52.674Z,21.52
2023-04-21T03:06:19.648Z,22.25
2023-04-21T03:08:46.511Z,22.17
2023-04-21T03:11:13.298Z,24.42
2023-04-21T03:13:40.109Z,23.40
2023-04-21T03:16:08.411Z,23.23
2023-04-21T03:18:36.380Z,21.35
2023-04-21T03:21:03.619Z,22.42
2023-04-21T03:23:30.800Z,19.65
2023-04-21T03:25:57.562Z,22.10
2023-04-21T03:28:24.457Z,22.08
2023-04-21T03:30:52.009Z,23.27
2023-04-21T03:33:18.786Z,20.80
2023-04-21T03:35:45.598Z,21.23
2023-04-21T03:38:12.346Z,21.25
2023-04-21T03:40:39.180Z,19.77
2023-04-21T03:43:06.160Z,21.25
2023-04-21T03:45:35.544Z,22.75
2023-04-21T03:48:02.519Z,21.65
2023-04-21T03:50:30.008Z,19.40
2023-04-21T03:52:57.409Z,22.15
2023-04-21T03:55:24.105Z,20.15
2023-04-21T03:57:50.818Z,21.38
2023-04-21T04:00:17.677Z,22.77
2023-04-21T04:02:45.464Z,21.10
2023-04-21T04:05:12.594Z,20.35
2023-04-21T04:07:39.460Z,18.15
2023-04-21T04:10:06.463Z,19.23
2023-04-21T04:12:33.732Z,19.20
2023-04-21T04:15:00.425Z,20.27
2023-04-21T04:17:27.204Z,21.45
2023-04-21T04:19:57.278Z,21.33
2023-04-21T04:22:27.277Z,19.73
2023-04-21T04:24:54.040Z,20.10
2023-04-21T04:27:21.449Z,22.20
2023-04-21T04:29:49.404Z,20.00
2023-04-21T04:32:16.265Z,19.65
2023-04-21T04:34:43.044Z,18.75
2023-04-21T04:37:11.181Z,18.60
2023-04-21T04:39:38.235Z,19.83
2023-04-21T04:42:14.576Z,18.83
2023-04-21T04:44:41.765Z,20.48
2023-04-21T04:47:09.191Z,18.95
2023-04-21T04:49:36.208Z,20.83
2023-04-21T04:52:03.366Z,19.90
2023-04-21T04:54:30.404Z,19.90
2023-04-21T04:56:58.096Z,21.38
2023-04-21T04:59:27.101Z,20.23
2023-04-21T05:01:55.440Z,22.10
2023-04-21T05:04:22.823Z,23.10
2023-04-21T05:06:50.261Z,23.05
2023-04-21T05:09:17.193Z,20.52
2023-04-21T05:11:43.987Z,23.27
2023-04-21T05:14:10.736Z,21.98
2023-04-21T05:16:37.516Z,23.20
2023-04-21T05:19:04.656Z,22.40
2023-04-21T05:21:31.467Z,21.95
2023-04-21T05:23:59.462Z,24.90
2023-04-21T05:26:29.843Z,24.10
2023-04-21T05:28:57.569Z,23.80
2023-04-21T05:31:25.302Z,25.20
2023-04-21T05:33:52.500Z,25.50
2023-04-21T05:36:21.879Z,26.05
2023-04-21T05:38:48.601Z,25.30
2023-04-21T05:41:16.002Z,26.67
2023-04-21T05:43:42.854Z,26.45
2023-04-21T05:46:11.165Z,26.23
2023-04-21T05:48:38.153Z,26.30
2023-04-21T05:51:11.741Z,24.88
2023-04-21T05:53:39.753Z,23.35
2023-04-21T05:56:08.298Z,25.33
2023-04-21T05:58:35.924Z,25.52
2023-04-21T06:01:02.700Z,27.27
2023-04-21T06:03:33.713Z,25.85
2023-04-21T06:06:02.295Z,28.23
2023-04-21T06:08:29.240Z,26.80
2023-04-21T06:10:56.044Z,25.85
2023-04-21T06:13:22.830Z,25.65
2023-04-21T06:15:49.653Z,27.23
2023-04-21T06:18:16.895Z,25.27
2023-04-21T06:20:50.646Z,26.75
2023-04-21T06:23:17.635Z,26.98
2023-04-21T06:25:44.351Z,27.83
2023-04-21T06:28:11.431Z,27.38
2023-04-21T06:30:38.525Z,26.85
2023-04-21T06:33:06.785Z,26.20
2023-04-21T06:35:33.851Z,27.20
2023-04-21T06:38:00.549Z,26.70
2023-04-21T06:40:27.472Z,27.77
2023-04-21T06:42:54.258Z,28.15
2023-04-21T06:45:21.200Z,28.00
2023-04-21T06:47:48.107Z,28.20
2023-04-21T06:50:15.133Z,27.45
2023-04-21T06:52:41.902Z,28.70
2023-04-21T06:55:08.879Z,29.10
2023-04-21T06:57:37.724Z,28.15
2023-04-21T07:00:06.083Z,31.05
2023-04-21T07:02:40.413Z,28.02
2023-04-21T07:05:07.541Z,29.13
2023-04-21T07:07:38.922Z,30.45
2023-04-21T07:10:11.676Z,28.15
2023-04-21T07:13:03.664Z,27.20
2023-04-21T07:16:14.390Z,27.93
2023-04-21T07:18:42.176Z,28.90
2023-04-21T07:21:09.005Z,28.38
2023-04-21T07:23:36.001Z,27.65
2023-04-21T07:26:02.765Z,28.17
2023-04-21T07:28:29.556Z,25.65
2023-04-21T07:30:56.862Z,25.80
2023-04-21T07:33:23.696Z,26.15
2023-04-21T07:35:50.649Z,26.90
2023-04-21T07:38:18.437Z,26.98
2023-04-21T07:40:50.619Z,28.73
2023-04-21T07:46:36.834Z,27.25
2023-04-21T07:49:25.705Z,26.35
2023-04-21T07:52:17.787Z,27.52
2023-04-21T07:54:45.033Z,27.67
2023-04-21T07:57:12.090Z,26.58
2023-04-21T07:59:38.919Z,27.23
2023-04-21T08:02:06.007Z,26.98
2023-04-21T08:04:33.212Z,25.48
2023-04-21T08:07:00.560Z,27.00
2023-04-21T08:09:27.925Z,27.27
2023-04-21T08:11:55.310Z,26.25
2023-04-21T08:14:22.312Z,25.10
2023-04-21T08:16:49.654Z,24.38
2023-04-21T08:19:18.939Z,24.52
2023-04-21T08:21:46.212Z,25.20
2023-04-21T08:24:14.298Z,24.42
2023-04-21T08:30:28.925Z,24.70
2023-04-21T08:32:56.211Z,26.10
2023-04-21T08:35:54.908Z,25.80
2023-04-21T08:43:59.186Z,24.23
2023-04-21T08:46:45.998Z,24.67
2023-04-21T08:49:39.480Z,23.92
2023-04-21T08:52:25.751Z,25.38
2023-04-21T08:56:09.980Z,24.80
2023-04-21T08:59:03.572Z,24.67
2023-04-21T09:01:32.510Z,25.45
2023-04-21T09:04:18.864Z,23.50
2023-04-21T09:06:46.546Z,24.30
2023-04-21T09:13:57.202Z,22.67
2023-04-21T09:20:40.596Z,23.05
2023-04-21T09:24:14.366Z,23.33
2023-04-21T09:26:45.469Z,21.83
2023-04-21T09:29:18.801Z,21.98
2023-04-21T09:32:43.547Z,21.98
2023-04-21T09:35:51.783Z,21.10
2023-04-21T09:38:27.676Z,22.63
2023-04-21T09:41:44.494Z,23.40
2023-04-21T09:44:11.319Z,23.10
2023-04-21T09:46:43.674Z,22.30
2023-04-21T09:49:13.759Z,21.23
2023-04-21T09:56:54.175Z,18.77
2023-04-21T09:59:33.222Z,20.08
2023-04-21T10:02:02.488Z,21.20
2023-04-21T10:04:32.274Z,20.02
2023-04-21T10:07:00.864Z,20.02
2023-04-21T10:09:40.701Z,18.60
2023-04-21T10:12:09.613Z,18.63
2023-04-21T10:14:36.752Z,19.05
2023-04-21T10:17:12.125Z,20.27
2023-04-21T10:19:50.239Z,19.52
2023-04-21T10:22:30.513Z,18.40
2023-04-21T10:24:59.758Z,18.25
2023-04-21T10:27:56.464Z,17.58
2023-04-21T10:30:26.576Z,17.27
2023-04-21T10:33:04.535Z,17.83
2023-04-21T10:36:01.231Z,18.45
2023-04-21T10:38:43.041Z,17.88
2023-04-21T10:41:29.883Z,19.98
2023-04-21T10:44:16.075Z,20.02
2023-04-21T10:46:47.789Z,20.23
2023-04-21T10:49:25.880Z,18.67
2023-04-21T10:52:08.702Z,19.40
2023-04-21T10:55:04.888Z,19.25
2023-04-21T10:57:34.047Z,19.55
2023-04-21T11:00:01.310Z,18.88
2023-04-21T11:02:28.194Z,19.73
2023-04-21T11:04:55.251Z,18.63
2023-04-21T11:07:26.729Z,18.58
2023-04-21T11:10:01.891Z,18.33
2023-04-21T11:12:39.412Z,18.75
2023-04-21T11:15:08.800Z,18.40
2023-04-21T11:18:00.669Z,19.55
2023-04-21T11:20:27.677Z,17.93
2023-04-21T11:22:57.112Z,17.88
2023-04-21T11:25:24.005Z,18.77
2023-04-21T11:27:56.095Z,17.50
2023-04-21T11:30:34.580Z,19.40
2023-04-21T11:33:01.900Z,18.25
2023-04-21T11:35:28.948Z,19.17
2023-04-21T11:37:56.201Z,18.75
2023-04-21T11:40:23.150Z,18.27
2023-04-21T11:42:50.513Z,21.27
2023-04-21T11:45:22.488Z,19.63
2023-04-21T11:48:42.410Z,19.48
2023-04-21T11:52:14.342Z,18.63
2023-04-21T11:54:41.215Z,19.73
2023-04-21T12:00:40.705Z,18.20
2023-04-21T12:03:14.126Z,18.08
2023-04-21T12:05:41.180Z,16.35
2023-04-21T12:08:33.299Z,17.88
2023-04-21T12:11:00.518Z,17.85
2023-04-21T12:13:31.298Z,18.63
2023-04-21T12:15:58.158Z,15.63
2023-04-21T12:18:42.896Z,15.90
2023-04-21T12:21:18.236Z,15.27
2023-04-21T12:24:05.220Z,14.95
2023-04-21T12:26:57.381Z,15.65
2023-04-21T12:29:37.546Z,14.20
2023-04-21T12:32:08.710Z,15.27
2023-04-21T12:38:12.996Z,15.77
2023-04-21T12:43:43.425Z,16.33
2023-04-21T12:46:25.664Z,16.85
2023-04-21T12:49:19.198Z,17.05
2023-04-21T12:51:51.933Z,16.30
2023-04-21T12:57:25.773Z,17.85
2023-04-21T13:00:21.986Z,18.08
2023-04-21T13:02:56.506Z,17.50
2023-04-21T13:05:25.612Z,19.40
2023-04-21T13:08:17.680Z,20.25
2023-04-21T13:10:45.899Z,19.95
2023-04-21T13:13:12.601Z,18.95
2023-04-21T13:15:39.520Z,18.38
2023-04-21T13:18:06.848Z,18.55
2023-04-21T13:20:33.870Z,19.05
2023-04-21T13:23:00.781Z,18.20
2023-04-21T13:25:27.852Z,18.05
2023-04-21T13:27:54.810Z,18.23
2023-04-21T13:30:21.796Z,18.65
2023-04-21T13:32:49.273Z,19.00
2023-04-21T13:35:16.459Z,18.27
2023-04-21T13:37:43.362Z,19.90
2023-04-21T13:40:16.131Z,19.77
2023-04-21T13:42:42.848Z,19.58
2023-04-21T13:45:10.255Z,20.17
2023-04-21T13:48:02.831Z,20.42
2023-04-21T13:50:29.739Z,21.58
2023-04-21T13:52:56.435Z,20.30
2023-04-21T13:55:26.513Z,19.98
2023-04-21T13:57:53.489Z,19.92
2023-04-21T14:00:20.630Z,19.33
2023-04-21T14:02:47.869Z,19.42
2023-04-21T14:05:14.938Z,19.15
2023-04-21T14:07:43.020Z,17.90
2023-04-21T14:10:11.643Z,17.40
2023-04-21T14:12:38.588Z,17.13
2023-04-21T14:15:06.831Z,17.20
2023-04-21T14:17:34.147Z,17.85
2023-04-21T14:20:25.911Z,16.50
2023-04-21T14:22:52.910Z,16.77
2023-04-21T14:25:19.988Z,14.90
2023-04-21T14:27:46.779Z,15.40
2023-04-21T14:30:14.732Z,15.45
2023-04-21T14:32:45.622Z,16.42
2023-04-21T14:35:15.529Z,14.80
2023-04-21T14:37:42.405Z,14.50
2023-04-21T14:40:10.395Z,14.15
2023-04-21T14:42:39.992Z,13.07
2023-04-21T14:45:08.283Z,13.38
2023-04-21T14:50:19.981Z,12.30
2023-04-21T14:52:55.630Z,12.50
2023-04-21T14:55:23.117Z,12.77
2023-04-21T14:57:51.844Z,12.50
2023-04-21T15:00:19.164Z,12.98
2023-04-21T15:02:48.578Z,13.27
2023-04-21T15:07:45.717Z,13.73
2023-04-21T15:10:29.761Z,13.30
2023-04-21T15:16:14.925Z,14.85
2023-04-21T15:19:33.542Z,13.48
2023-04-21T15:25:19.590Z,13.13
2023-04-21T15:27:47.090Z,14.60
2023-04-21T15:30:14.422Z,14.35
2023-04-21T15:32:41.190Z,14.32
2023-04-21T15:35:09.820Z,14.45
2023-04-21T15:37:36.778Z,14.70
2023-04-21T15:40:04.877Z,15.48
2023-04-21T15:42:32.011Z,15.15
2023-04-21T15:44:58.892Z,15.18
2023-04-21T15:47:30.448Z,15.30
2023-04-21T15:50:00.307Z,14.23
2023-04-21T15:52:28.531Z,15.77
2023-04-21T15:54:55.590Z,15.68
2023-04-21T15:57:28.392Z,16.38
2023-04-21T15:59:55.301Z,15.10
2023-04-21T16:02:22.587Z,14.82
2023-04-21T16:04:49.797Z,15.55
2023-04-21T16:07:16.728Z,14.88
2023-04-21T16:09:43.764Z,17.08
2023-04-21T16:12:11.194Z,13.95
2023-04-21T16:14:53.511Z,14.80
2023-04-21T16:17:26.464Z,15.50
2023-04-21T16:19:53.712Z,14.85
2023-04-21T16:22:20.678Z,15.07
2023-04-21T16:24:48.498Z,14.38
2023-04-21T16:27:20.038Z,15.32
2023-04-21T16:29:46.900Z,15.05
2023-04-21T16:32:13.680Z,16.13
2023-04-21T16:34:42.878Z,15.25
2023-04-21T16:37:09.807Z,15.98
2023-04-21T16:39:37.975Z,15.80
2023-04-21T16:42:04.997Z,14.85
2023-04-21T16:44:31.922Z,14.68
2023-04-21T16:46:58.970Z,15.15
2023-04-21T16:49:42.313Z,15.13
2023-04-21T16:52:11.276Z,15.25
2023-04-21T16:54:38.433Z,15.02
2023-04-21T16:57:09.149Z,15.75
2023-04-21T16:59:39.083Z,14.73
2023-04-21T17:02:06.372Z,14.13
2023-04-21T17:04:33.113Z,14.60
2023-04-21T17:07:00.014Z,16.15
2023-04-21T17:09:26.695Z,15.68
2023-04-21T17:11:53.586Z,14.85
2023-04-21T17:14:20.456Z,14.55
2023-04-21T17:16:47.331Z,15.70
2023-04-21T17:19:37.719Z,16.58
2023-04-21T17:22:04.595Z,15.27
2023-04-21T17:24:44.809Z,16.40
2023-04-21T17:27:19.745Z,15.13
2023-04-21T17:29:46.917Z,16.45
2023-04-21T17:35:06.176Z,14.95
2023-04-21T17:37:36.785Z,16.30
2023-04-21T17:40:03.948Z,16.13
2023-04-21T17:42:30.974Z,15.40
2023-04-21T17:44:57.722Z,15.65
2023-04-21T17:47:24.575Z,15.75
2023-04-21T17:49:51.431Z,16.15
2023-04-21T17:52:18.199Z,16.85
2023-04-21T17:54:45.783Z,17.70
2023-04-21T17:57:12.598Z,16.70
2023-04-21T17:59:43.744Z,16.58
2023-04-21T18:02:10.628Z,16.13
2023-04-21T18:04:37.932Z,15.80
2023-04-21T18:07:07.336Z,15.77
2023-04-21T18:09:34.487Z,16.30
2023-04-21T18:12:01.718Z,6.70
2023-04-21T18:14:28.756Z,6.43
2023-04-21T18:16:58.162Z,5.38
2023-04-21T18:19:24.872Z,4.60
2023-04-21T18:21:51.764Z,4.47
2023-04-21T18:24:18.510Z,4.60
2023-04-21T18:26:45.825Z,4.50
2023-04-21T18:29:14.162Z,4.40
2023-04-21T18:31:41.943Z,4.72
2023-04-21T18:34:09.059Z,4.55
2023-04-21T18:36:37.000Z,4.00
2023-04-21T18:39:05.282Z,5.00
2023-04-21T18:41:32.293Z,4.68
2023-04-21T18:43:59.839Z,4.55
2023-04-21T18:46:29.448Z,6.70
2023-04-21T18:48:56.825Z,5.13
2023-04-21T18:51:24.048Z,4.93
2023-04-21T18:53:50.866Z,5.05
2023-04-21T18:56:17.613Z,5.10
2023-04-21T18:58:44.520Z,4.70
2023-04-21T19:01:11.332Z,4.95
2023-04-21T19:03:38.270Z,4.88
2023-04-21T19:06:05.143Z,4.88
2023-04-21T19:08:42.042Z,5.68
2023-04-21T19:11:11.212Z,4.72
2023-04-21T19:13:38.475Z,5.55
2023-04-21T19:16:07.570Z,5.55
2023-04-21T19:18:34.331Z,5.55
2023-04-21T19:21:07.185Z,5.20
2023-04-21T19:23:33.965Z,4.97
2023-04-21T19:26:04.597Z,6.35
2023-04-21T19:28:35.929Z,5.25
2023-04-21T19:31:03.148Z,5.20
2023-04-21T19:33:30.061Z,5.85
2023-04-21T19:35:58.341Z,5.40
2023-04-21T19:38:26.342Z,6.10
2023-04-21T19:40:53.155Z,6.38
2023-04-21T19:43:20.869Z,6.20
2023-04-21T19:45:48.282Z,6.28
2023-04-21T19:48:15.750Z,5.78
2023-04-21T19:50:42.794Z,6.40
2023-04-21T19:53:14.461Z,7.03
2023-04-21T19:55:42.419Z,7.43
2023-04-21T19:58:09.658Z,7.03
2023-04-21T20:00:36.918Z,6.30
2023-04-21T20:03:06.493Z,6.70
2023-04-21T20:05:46.192Z,6.32
2023-04-21T20:08:12.929Z,6.95
2023-04-21T20:10:46.483Z,7.18
2023-04-21T20:13:13.772Z,7.28
2023-04-21T20:15:42.838Z,8.77
2023-04-21T20:18:09.985Z,7.50
2023-04-21T20:20:37.114Z,6.00
2023-04-21T20:23:04.140Z,5.90
2023-04-21T20:25:42.714Z,7.30
2023-04-21T20:28:21.881Z,7.25
2023-04-21T20:31:13.775Z,6.85
2023-04-21T20:33:52.893Z,7.20
2023-04-21T20:36:19.759Z,7.55
2023-04-21T20:38:49.304Z,6.90
2023-04-21T20:41:16.356Z,6.30
2023-04-21T20:43:43.965Z,6.90
2023-04-21T20:46:11.097Z,7.95
2023-04-21T20:48:38.297Z,8.27
2023-04-21T20:51:05.000Z,6.60
2023-04-21T20:53:31.788Z,6.93
2023-04-21T20:55:58.627Z,6.15
2023-04-21T20:58:25.498Z,6.28
2023-04-21T21:00:52.340Z,6.28
2023-04-21T21:03:20.342Z,5.05
2023-04-21T21:05:47.478Z,5.10
2023-04-21T21:08:14.927Z,4.30
2023-04-21T21:10:41.986Z,4.25
2023-04-21T21:13:08.825Z,3.72
2023-04-21T21:15:35.733Z,3.50
2023-04-21T21:18:03.264Z,3.65
2023-04-21T21:20:33.307Z,4.10
2023-04-21T21:25:42.248Z,3.50
2023-04-21T21:28:34.801Z,3.58
2023-04-21T21:31:01.513Z,3.97
2023-04-21T21:33:37.756Z,3.75
2023-04-21T21:36:20.030Z,4.32
2023-04-21T21:39:12.623Z,3.88
2023-04-21T21:41:39.743Z,3.60
2023-04-21T21:44:07.823Z,3.80
2023-04-21T21:46:35.151Z,4.07
2023-04-21T21:49:02.383Z,3.80
2023-04-21T21:51:29.308Z,4.05
2023-04-21T21:53:56.281Z,4.07
2023-04-21T21:56:25.355Z,3.58
2023-04-21T21:58:52.445Z,4.25
2023-04-21T22:01:19.704Z,4.13
2023-04-21T22:03:47.645Z,4.50
2023-04-21T22:06:16.936Z,4.68
2023-04-21T22:08:44.602Z,4.35
2023-04-21T22:11:11.839Z,4.00
2023-04-21T22:13:38.640Z,4.22
2023-04-21T22:16:08.373Z,4.63
2023-04-21T22:18:35.236Z,4.10
2023-04-21T22:21:04.839Z,4.40
2023-04-21T22:23:38.034Z,4.63
2023-04-21T22:26:04.928Z,4.32
2023-04-21T22:28:31.823Z,5.50
2023-04-21T22:30:58.858Z,5.40
2023-04-21T22:33:26.013Z,5.80
2023-04-21T22:35:53.064Z,5.93
2023-04-21T22:38:19.909Z,5.82
2023-04-21T22:40:48.641Z,6.65
2023-04-21T22:43:15.673Z,6.53
2023-04-21T22:45:43.659Z,7.03
2023-04-21T22:48:10.492Z,6.53
2023-04-21T22:50:37.382Z,6.80
2023-04-21T22:53:04.337Z,7.20
2023-04-21T22:55:31.939Z,6.75
2023-04-21T22:57:58.823Z,6.28
2023-04-21T23:00:26.451Z,6.90
2023-04-21T23:02:53.513Z,6.80
2023-04-21T23:05:21.080Z,7.25
2023-04-21T23:07:47.956Z,5.88
2023-04-21T23:10:14.996Z,5.85
2023-04-21T23:12:41.865Z,5.68
2023-04-21T23:15:09.023Z,5.38
2023-04-21T23:17:36.413Z,6.15
2023-04-21T23:20:05.433Z,6.10
2023-04-21T23:22:32.578Z,6.60
2023-04-21T23:24:59.416Z,6.82
2023-04-21T23:27:26.214Z,6.95
2023-04-21T23:29:54.184Z,7.20
2023-04-21T23:32:21.276Z,6.72
2023-04-21T23:34:48.381Z,7.07
2023-04-21T23:37:15.783Z,7.75
2023-04-21T23:39:43.169Z,7.90
2023-04-21T23:42:10.212Z,7.85
2023-04-21T23:44:37.544Z,7.68
2023-04-21T23:47:04.475Z,7.97
2023-04-21T23:49:32.725Z,7.28
2023-04-21T23:52:00.205Z,8.23
2023-04-21T23:54:27.352Z,7.95
2023-04-21T23:56:54.738Z,7.97
2023-04-21T23:59:21.602Z,8.18
